createdAt,value
2018-08-31T00:00:52.524Z,99.90
2018-08-31T00:04:34.568Z,99.90
2018-08-31T00:07:15.431Z,99.90
2018-08-31T00:09:55.520Z,99.90
2018-08-31T00:12:40.262Z,99.90
2018-08-31T00:15:09.712Z,99.90
2018-08-31T00:17:40.157Z,99.90
2018-08-31T00:20:10.241Z,99.90
2018-08-31T00:22:39.704Z,99.90
2018-08-31T00:26:19.750Z,99.90
2018-08-31T00:29:44.595Z,99.90
2018-08-31T00:33:28.024Z,99.90
2018-08-31T00:36:23.555Z,99.90
2018-08-31T00:39:03.332Z,99.90
2018-08-31T00:42:08.568Z,99.90
2018-08-31T00:44:46.383Z,99.90
2018-08-31T00:47:16.518Z,99.90
2018-08-31T00:49:46.102Z,99.90
2018-08-31T00:52:15.230Z,99.90
2018-08-31T00:54:44.720Z,99.90
2018-08-31T00:57:14.056Z,99.90
2018-08-31T00:59:43.384Z,99.90
2018-08-31T01:02:13.097Z,99.90
2018-08-31T01:04:42.480Z,99.90
2018-08-31T01:07:11.867Z,99.90
2018-08-31T01:09:41.214Z,99.90
2018-08-31T01:12:10.590Z,99.90
2018-08-31T01:14:40.004Z,99.90
2018-08-31T01:17:09.641Z,99.90
2018-08-31T01:19:39.104Z,99.90
2018-08-31T01:22:08.334Z,99.90
2018-08-31T01:24:37.622Z,99.90
2018-08-31T01:27:06.880Z,99.90
2018-08-31T01:29:36.189Z,99.90
2018-08-31T01:32:05.889Z,99.90
2018-08-31T01:34:35.108Z,99.90
2018-08-31T01:37:04.541Z,99.90
2018-08-31T01:39:33.719Z,99.90
2018-08-31T01:42:03.156Z,99.90
2018-08-31T01:44:32.450Z,99.90
2018-08-31T01:47:01.887Z,99.90
2018-08-31T01:49:31.261Z,99.90
2018-08-31T01:52:00.629Z,99.90
2018-08-31T01:54:29.888Z,99.90
2018-08-31T01:56:59.152Z,99.90
2018-08-31T01:59:28.530Z,99.90
2018-08-31T02:01:57.864Z,99.90
2018-08-31T02:04:27.140Z,99.90
2018-08-31T02:06:56.645Z,99.90
2018-08-31T02:09:25.868Z,99.90
2018-08-31T02:11:55.137Z,99.90
2018-08-31T02:14:24.396Z,99.90
2018-08-31T02:16:53.848Z,99.90
2018-08-31T02:19:23.241Z,99.90
2018-08-31T02:21:52.776Z,99.90
2018-08-31T02:24:22.225Z,99.90
2018-08-31T02:26:51.623Z,99.90
2018-08-31T02:29:20.803Z,99.90
2018-08-31T02:31:50.010Z,99.90
2018-08-31T02:34:19.444Z,99.90
2018-08-31T02:36:48.824Z,99.90
2018-08-31T02:39:18.484Z,99.90
2018-08-31T02:41:47.580Z,99.90
2018-08-31T02:44:16.913Z,99.90
2018-08-31T02:46:46.297Z,99.90
2018-08-31T02:49:15.540Z,99.90
2018-08-31T02:51:44.612Z,99.90
2018-08-31T02:54:13.932Z,99.90
2018-08-31T02:56:43.425Z,99.90
2018-08-31T02:59:12.869Z,99.90
2018-08-31T03:01:42.148Z,99.90
2018-08-31T03:04:11.487Z,99.90
2018-08-31T03:06:40.877Z,99.90
2018-08-31T03:09:10.341Z,99.90
2018-08-31T03:11:39.766Z,99.90
2018-08-31T03:14:09.060Z,99.90
2018-08-31T03:16:38.331Z,99.90
2018-08-31T03:19:07.691Z,99.90
2018-08-31T03:21:36.989Z,99.90
2018-08-31T03:24:06.268Z,99.90
2018-08-31T03:26:35.721Z,99.90
2018-08-31T03:29:04.888Z,99.90
2018-08-31T03:31:34.363Z,99.90
2018-08-31T03:34:03.913Z,99.90
2018-08-31T03:36:33.072Z,99.90
2018-08-31T03:39:02.379Z,99.90
2018-08-31T03:41:31.597Z,99.90
2018-08-31T03:44:00.875Z,99.90
2018-08-31T03:46:30.025Z,99.90
2018-08-31T03:48:59.181Z,99.90
2018-08-31T03:51:28.797Z,99.90
2018-08-31T03:53:58.099Z,99.90
2018-08-31T03:56:27.436Z,99.90
2018-08-31T03:58:56.653Z,99.90
2018-08-31T04:01:25.894Z,99.90
2018-08-31T04:03:55.292Z,99.90
2018-08-31T04:06:24.739Z,99.90
2018-08-31T04:08:53.901Z,99.90
2018-08-31T04:11:23.317Z,99.90
2018-08-31T04:13:52.527Z,99.90
2018-08-31T04:16:21.879Z,99.90
2018-08-31T04:18:51.160Z,99.90
2018-08-31T04:21:20.612Z,99.90
2018-08-31T04:23:49.980Z,99.90
2018-08-31T04:26:19.471Z,99.90
2018-08-31T04:28:48.706Z,99.90
2018-08-31T04:31:18.236Z,99.90
2018-08-31T04:33:48.478Z,99.90
2018-08-31T04:36:17.896Z,99.90
2018-08-31T04:38:47.324Z,99.90
2018-08-31T04:41:16.784Z,99.90
2018-08-31T04:43:45.944Z,99.90
2018-08-31T04:46:15.206Z,99.90
2018-08-31T04:48:44.462Z,99.90
2018-08-31T04:51:13.746Z,99.90
2018-08-31T04:53:42.976Z,99.90
2018-08-31T04:56:12.272Z,99.90
2018-08-31T04:58:41.559Z,99.90
2018-08-31T05:01:10.888Z,99.90
2018-08-31T05:03:40.344Z,99.90
2018-08-31T05:06:09.569Z,99.90
2018-08-31T05:08:38.965Z,99.90
2018-08-31T05:11:08.060Z,99.90
2018-08-31T05:13:37.386Z,99.90
2018-08-31T05:16:06.673Z,99.90
2018-08-31T05:18:36.095Z,99.90
2018-08-31T05:21:05.495Z,99.90
2018-08-31T05:23:34.829Z,99.90
2018-08-31T05:26:04.173Z,99.90
2018-08-31T05:28:33.531Z,99.90
2018-08-31T05:31:02.619Z,99.90
2018-08-31T05:33:32.065Z,99.90
2018-08-31T05:36:01.365Z,99.90
2018-08-31T05:38:30.786Z,99.90
2018-08-31T05:41:00.087Z,99.90
2018-08-31T05:43:29.352Z,99.90
2018-08-31T05:45:58.756Z,99.90
2018-08-31T05:48:28.156Z,99.90
2018-08-31T05:50:57.338Z,99.90
2018-08-31T05:53:26.823Z,99.90
2018-08-31T05:55:56.186Z,99.90
2018-08-31T05:58:25.623Z,99.90
2018-08-31T06:00:54.897Z,99.90
2018-08-31T06:03:24.378Z,99.90
2018-08-31T06:05:53.996Z,99.90
2018-08-31T06:08:23.264Z,99.90
2018-08-31T06:10:53.528Z,99.90
2018-08-31T06:13:23.085Z,99.90
2018-08-31T06:15:52.734Z,99.90
2018-08-31T06:18:21.872Z,99.90
2018-08-31T06:20:51.265Z,99.90
2018-08-31T06:23:20.472Z,99.90
2018-08-31T06:25:49.824Z,99.90
2018-08-31T06:28:19.096Z,99.90
2018-08-31T06:30:48.152Z,99.90
2018-08-31T06:33:17.440Z,99.90
2018-08-31T06:35:46.816Z,99.90
2018-08-31T06:38:16.190Z,99.90
2018-08-31T06:40:45.437Z,99.90
2018-08-31T06:43:14.928Z,99.90
2018-08-31T06:45:44.333Z,99.90
2018-08-31T06:48:13.608Z,99.90
2018-08-31T06:50:42.981Z,99.90
2018-08-31T06:53:12.124Z,99.90
2018-08-31T06:55:41.398Z,99.90
2018-08-31T06:58:10.800Z,99.90
2018-08-31T07:00:39.953Z,99.90
2018-08-31T07:03:09.107Z,99.90
2018-08-31T07:05:38.422Z,99.90
2018-08-31T07:08:07.849Z,99.90
2018-08-31T07:10:36.984Z,99.90
2018-08-31T07:13:05.928Z,99.90
2018-08-31T07:15:35.026Z,99.90
2018-08-31T07:18:04.260Z,99.90
2018-08-31T07:20:33.600Z,99.90
2018-08-31T07:23:02.896Z,99.90
2018-08-31T07:25:32.280Z,99.90
2018-08-31T07:28:01.720Z,99.90
2018-08-31T07:30:31.126Z,99.90
2018-08-31T07:33:00.469Z,99.90
2018-08-31T07:35:29.633Z,99.90
2018-08-31T07:37:59.080Z,99.90
2018-08-31T07:40:28.413Z,99.90
2018-08-31T07:42:57.829Z,99.90
2018-08-31T07:45:28.348Z,99.90
2018-08-31T07:47:57.980Z,99.90
2018-08-31T07:50:27.497Z,99.90
2018-08-31T07:52:56.793Z,99.90
2018-08-31T07:55:25.952Z,99.90
2018-08-31T07:57:56.675Z,99.90
2018-08-31T08:00:25.758Z,99.90
2018-08-31T08:02:55.288Z,99.90
2018-08-31T08:05:24.939Z,99.90
2018-08-31T08:07:54.170Z,99.90
2018-08-31T08:10:23.628Z,99.90
2018-08-31T08:12:53.591Z,99.90
2018-08-31T08:15:23.371Z,99.90
2018-08-31T08:17:52.680Z,99.90
2018-08-31T08:20:21.953Z,99.90
2018-08-31T08:22:51.689Z,99.90
2018-08-31T08:25:21.197Z,99.90
2018-08-31T08:27:50.410Z,99.90
2018-08-31T08:30:19.759Z,99.90
2018-08-31T08:32:49.048Z,99.90
2018-08-31T08:35:18.500Z,99.90
2018-08-31T08:37:47.666Z,99.90
2018-08-31T08:40:17.067Z,99.90
2018-08-31T08:42:46.404Z,99.90
2018-08-31T08:45:15.837Z,99.90
2018-08-31T08:47:46.266Z,99.90
2018-08-31T08:50:15.593Z,99.90
2018-08-31T08:52:44.983Z,99.90
2018-08-31T08:55:14.357Z,99.90
2018-08-31T08:57:43.796Z,99.90
2018-08-31T09:00:13.348Z,99.90
2018-08-31T09:02:42.842Z,99.90
2018-08-31T09:05:12.190Z,99.90
2018-08-31T09:07:41.569Z,99.90
2018-08-31T09:10:10.709Z,99.90
2018-08-31T09:12:39.872Z,99.90
2018-08-31T09:15:09.184Z,99.90
2018-08-31T09:17:38.635Z,99.90
2018-08-31T09:20:07.865Z,99.90
2018-08-31T09:22:37.234Z,99.90
2018-08-31T09:25:06.746Z,99.90
2018-08-31T09:27:36.092Z,99.90
2018-08-31T09:30:05.452Z,99.90
2018-08-31T09:32:34.633Z,99.90
2018-08-31T09:35:03.905Z,99.90
2018-08-31T09:37:33.764Z,99.90
2018-08-31T09:40:03.066Z,99.90
2018-08-31T09:42:32.416Z,99.90
2018-08-31T09:45:02.198Z,99.90
2018-08-31T09:47:31.741Z,99.90
2018-08-31T09:50:01.236Z,99.90
2018-08-31T09:52:30.593Z,99.90
2018-08-31T09:55:00.048Z,99.90
2018-08-31T09:57:29.505Z,99.90
2018-08-31T09:59:59.036Z,99.90
2018-08-31T10:02:33.521Z,99.50
2018-08-31T10:05:02.940Z,99.40
2018-08-31T10:07:32.411Z,98.40
2018-08-31T10:10:01.810Z,97.60
2018-08-31T10:12:31.166Z,95.60
2018-08-31T10:15:00.719Z,95.40
2018-08-31T10:17:30.172Z,96.10
2018-08-31T10:19:59.684Z,95.00
2018-08-31T10:22:29.245Z,94.70
2018-08-31T10:24:59.096Z,94.10
2018-08-31T10:27:28.580Z,94.90
2018-08-31T10:29:58.079Z,94.90
2018-08-31T10:32:27.648Z,94.70
2018-08-31T10:34:57.175Z,95.00
2018-08-31T10:37:26.553Z,93.30
2018-08-31T10:39:55.985Z,93.30
2018-08-31T10:42:25.255Z,93.70
2018-08-31T10:44:54.525Z,93.90
2018-08-31T10:47:23.680Z,93.80
2018-08-31T10:49:53.032Z,93.90
2018-08-31T10:52:22.222Z,94.60
2018-08-31T10:54:51.358Z,94.90
2018-08-31T10:57:20.672Z,94.50
2018-08-31T10:59:50.164Z,93.90
2018-08-31T11:02:19.513Z,93.30
2018-08-31T11:04:49.236Z,94.30
2018-08-31T11:07:18.632Z,94.30
2018-08-31T11:09:48.184Z,94.40
2018-08-31T11:12:17.446Z,94.80
2018-08-31T11:14:47.093Z,94.50
2018-08-31T11:17:16.252Z,93.50
2018-08-31T11:19:45.502Z,93.30
2018-08-31T11:22:14.708Z,92.70
2018-08-31T11:24:43.912Z,93.90
2018-08-31T11:27:13.301Z,93.00
2018-08-31T11:29:42.847Z,93.80
2018-08-31T11:32:12.025Z,92.40
2018-08-31T11:34:41.384Z,93.10
2018-08-31T11:37:10.388Z,92.50
2018-08-31T11:39:39.574Z,92.00
2018-08-31T11:42:09.011Z,92.30
2018-08-31T11:44:38.216Z,92.70
2018-08-31T11:47:07.740Z,93.80
2018-08-31T11:49:37.153Z,92.30
2018-08-31T11:52:06.484Z,93.20
2018-08-31T11:54:35.980Z,93.40
2018-08-31T11:57:05.488Z,93.30
2018-08-31T11:59:34.793Z,92.80
2018-08-31T12:02:04.397Z,91.40
2018-08-31T12:04:33.742Z,93.30
2018-08-31T12:07:03.343Z,92.20
2018-08-31T12:09:32.792Z,91.90
2018-08-31T12:12:02.344Z,91.60
2018-08-31T12:14:31.771Z,91.20
2018-08-31T12:17:01.448Z,91.20
2018-08-31T12:19:31.130Z,90.50
2018-08-31T12:22:00.633Z,89.10
2018-08-31T12:24:30.440Z,89.10
2018-08-31T12:27:00.041Z,86.70
2018-08-31T12:29:29.678Z,85.20
2018-08-31T12:31:59.195Z,84.80
2018-08-31T12:34:28.852Z,85.60
2018-08-31T12:36:58.815Z,87.70
2018-08-31T12:39:28.159Z,85.30
2018-08-31T12:41:57.755Z,83.30
2018-08-31T12:44:27.058Z,79.30
2018-08-31T12:46:56.448Z,85.30
2018-08-31T12:49:25.853Z,84.70
2018-08-31T12:51:55.193Z,85.40
2018-08-31T12:54:24.744Z,85.10
2018-08-31T12:56:53.997Z,85.70
2018-08-31T12:59:23.180Z,84.00
2018-08-31T13:01:52.351Z,84.60
2018-08-31T13:04:21.704Z,87.00
2018-08-31T13:06:51.224Z,86.40
2018-08-31T13:09:20.838Z,88.40
2018-08-31T13:11:50.107Z,90.40
2018-08-31T13:14:19.568Z,88.60
2018-08-31T13:16:49.052Z,87.40
2018-08-31T13:19:18.253Z,86.60
2018-08-31T13:21:47.413Z,82.50
2018-08-31T13:24:16.656Z,86.00
2018-08-31T13:26:45.864Z,85.80
2018-08-31T13:29:15.182Z,86.90
2018-08-31T13:31:44.354Z,89.20
2018-08-31T13:34:13.487Z,87.10
2018-08-31T13:36:42.564Z,86.10
2018-08-31T13:39:11.811Z,87.20
2018-08-31T13:41:41.025Z,87.50
2018-08-31T13:44:10.581Z,90.10
2018-08-31T13:46:39.813Z,89.10
2018-08-31T13:49:09.160Z,90.40
2018-08-31T13:51:38.692Z,90.00
2018-08-31T13:54:08.157Z,88.60
2018-08-31T13:56:37.617Z,88.00
2018-08-31T13:59:07.037Z,88.40
2018-08-31T14:01:36.440Z,89.50
2018-08-31T14:04:05.734Z,87.90
2018-08-31T14:06:35.032Z,87.60
2018-08-31T14:09:05.816Z,86.40
2018-08-31T14:11:35.501Z,88.00
2018-08-31T14:14:04.887Z,89.30
2018-08-31T14:16:36.337Z,90.30
2018-08-31T14:19:07.372Z,87.30
2018-08-31T14:21:36.645Z,87.50
2018-08-31T14:24:06.154Z,87.10
2018-08-31T14:26:35.676Z,85.90
2018-08-31T14:29:05.237Z,88.10
2018-08-31T14:31:34.963Z,87.10
2018-08-31T14:34:04.412Z,85.90
2018-08-31T14:36:33.731Z,85.80
2018-08-31T14:39:03.282Z,86.90
2018-08-31T14:41:33.140Z,85.40
2018-08-31T14:44:02.483Z,82.30
2018-08-31T14:46:32.092Z,79.20
2018-08-31T14:49:01.508Z,78.00
2018-08-31T14:51:31.578Z,79.00
2018-08-31T14:54:01.100Z,79.40
2018-08-31T14:56:30.911Z,81.20
2018-08-31T14:59:00.550Z,82.90
2018-08-31T15:01:30.009Z,82.80
2018-08-31T15:03:59.868Z,83.30
2018-08-31T15:06:29.578Z,83.30
2018-08-31T15:08:59.072Z,79.90
2018-08-31T15:11:28.649Z,78.60
2018-08-31T15:13:58.208Z,82.20
2018-08-31T15:16:27.832Z,82.20
2018-08-31T15:18:58.321Z,83.20
2018-08-31T15:21:27.730Z,80.60
2018-08-31T15:23:57.014Z,83.30
2018-08-31T15:26:26.536Z,83.30
2018-08-31T15:28:55.952Z,85.10
2018-08-31T15:31:25.264Z,81.20
2018-08-31T15:33:54.386Z,80.40
2018-08-31T15:36:23.593Z,80.50
2018-08-31T15:38:52.840Z,80.70
2018-08-31T15:41:22.112Z,78.00
2018-08-31T15:43:51.519Z,79.30
2018-08-31T15:46:20.873Z,76.90
2018-08-31T15:48:50.084Z,77.70
2018-08-31T15:51:19.356Z,77.40
2018-08-31T15:53:48.715Z,78.70
2018-08-31T15:56:17.958Z,79.90
2018-08-31T15:58:47.253Z,81.30
2018-08-31T16:01:16.462Z,81.60
2018-08-31T16:03:45.658Z,81.90
2018-08-31T16:06:14.973Z,83.00
2018-08-31T16:08:44.393Z,82.80
2018-08-31T16:11:13.558Z,84.40
2018-08-31T16:13:42.813Z,84.60
2018-08-31T16:16:12.181Z,84.50
2018-08-31T16:18:41.540Z,85.20
2018-08-31T16:21:10.824Z,85.10
2018-08-31T16:23:40.161Z,85.40
2018-08-31T16:26:09.440Z,85.90
2018-08-31T16:28:38.864Z,87.40
2018-08-31T16:31:08.256Z,86.90
2018-08-31T16:33:37.521Z,88.50
2018-08-31T16:36:07.012Z,88.80
2018-08-31T16:38:36.568Z,89.30
2018-08-31T16:41:05.965Z,90.00
2018-08-31T16:43:35.337Z,90.20
2018-08-31T16:46:04.796Z,88.90
2018-08-31T16:48:34.382Z,88.50
2018-08-31T16:51:03.946Z,89.30
2018-08-31T16:53:33.404Z,89.90
2018-08-31T16:56:02.994Z,89.70
2018-08-31T16:58:32.488Z,89.30
2018-08-31T17:01:02.013Z,89.10
2018-08-31T17:03:31.470Z,89.80
2018-08-31T17:06:00.980Z,89.90
2018-08-31T17:08:30.441Z,88.80
2018-08-31T17:10:59.816Z,88.50
2018-08-31T17:13:29.351Z,89.60
2018-08-31T17:15:58.944Z,88.70
2018-08-31T17:18:28.516Z,89.90
2018-08-31T17:20:58.151Z,91.00
2018-08-31T17:23:27.454Z,91.20
2018-08-31T17:25:56.937Z,91.50
2018-08-31T17:28:31.274Z,91.50
2018-08-31T17:31:05.718Z,92.00
2018-08-31T17:34:41.099Z,91.90
2018-08-31T17:37:22.085Z,91.60
2018-08-31T17:39:51.400Z,92.30
2018-08-31T17:42:20.819Z,91.90
2018-08-31T17:44:50.025Z,92.60
2018-08-31T17:47:19.254Z,92.70
2018-08-31T17:49:48.648Z,93.00
2018-08-31T17:52:18.085Z,92.90
2018-08-31T17:54:47.356Z,92.50
2018-08-31T17:57:16.700Z,92.70
2018-08-31T17:59:46.065Z,92.90
2018-08-31T18:02:15.373Z,93.20
2018-08-31T18:04:44.697Z,93.90
2018-08-31T18:07:14.145Z,94.10
2018-08-31T18:09:43.808Z,94.60
2018-08-31T18:12:13.080Z,95.30
2018-08-31T18:14:42.388Z,95.40
2018-08-31T18:17:11.606Z,95.20
2018-08-31T18:19:41.771Z,95.90
2018-08-31T18:22:11.161Z,96.90
2018-08-31T18:24:41.059Z,97.10
2018-08-31T18:27:10.392Z,97.50
2018-08-31T18:29:39.649Z,97.80
2018-08-31T18:32:09.328Z,96.90
2018-08-31T18:34:38.812Z,97.00
2018-08-31T18:37:08.066Z,96.90
2018-08-31T18:39:37.147Z,97.70
2018-08-31T18:42:06.605Z,95.80
2018-08-31T18:44:36.803Z,96.00
2018-08-31T18:47:06.265Z,95.80
2018-08-31T18:49:35.724Z,95.90
2018-08-31T18:52:05.278Z,97.00
2018-08-31T18:54:34.579Z,96.90
2018-08-31T18:57:03.906Z,96.90
2018-08-31T18:59:33.159Z,96.60
2018-08-31T19:02:03.523Z,97.80
2018-08-31T19:04:33.130Z,97.50
2018-08-31T19:07:02.746Z,97.20
2018-08-31T19:09:32.376Z,96.70
2018-08-31T19:12:01.924Z,97.00
2018-08-31T19:14:31.340Z,96.50
2018-08-31T19:17:00.816Z,97.80
2018-08-31T19:19:30.250Z,98.60
2018-08-31T19:21:59.676Z,98.50
2018-08-31T19:24:29.464Z,97.70
2018-08-31T19:26:59.159Z,98.80
2018-08-31T19:29:29.335Z,99.70
2018-08-31T19:31:58.987Z,99.60
2018-08-31T19:34:28.446Z,99.00
2018-08-31T19:36:58.110Z,99.90
2018-08-31T19:39:27.756Z,99.30
2018-08-31T19:41:57.585Z,99.80
2018-08-31T19:44:27.286Z,99.90
2018-08-31T19:46:56.805Z,99.90
2018-08-31T19:49:26.429Z,99.90
2018-08-31T19:51:55.689Z,99.90
2018-08-31T19:54:25.027Z,99.90
2018-08-31T19:56:54.237Z,99.90
2018-08-31T19:59:23.528Z,99.90
2018-08-31T20:01:52.769Z,99.90
2018-08-31T20:04:22.032Z,99.90
2018-08-31T20:06:51.589Z,99.90
2018-08-31T20:09:20.896Z,99.80
2018-08-31T20:11:50.612Z,99.50
2018-08-31T20:14:19.696Z,99.00
2018-08-31T20:16:48.948Z,99.70
2018-08-31T20:19:18.340Z,99.70
2018-08-31T20:21:47.560Z,99.20
2018-08-31T20:24:16.741Z,99.90
2018-08-31T20:26:45.989Z,99.90
2018-08-31T20:29:15.168Z,99.90
2018-08-31T20:31:44.702Z,99.90
2018-08-31T20:34:13.784Z,99.90
2018-08-31T20:36:43.264Z,99.80
2018-08-31T20:39:13.232Z,99.50
2018-08-31T20:41:42.751Z,99.70
2018-08-31T20:44:12.053Z,99.70
2018-08-31T20:46:41.405Z,99.90
2018-08-31T20:49:10.488Z,99.90
2018-08-31T20:51:39.714Z,99.90
2018-08-31T20:54:08.958Z,99.90
2018-08-31T20:56:38.148Z,99.90
2018-08-31T20:59:07.331Z,99.90
2018-08-31T21:01:36.451Z,99.90
2018-08-31T21:04:05.749Z,99.90
2018-08-31T21:06:35.272Z,99.90
2018-08-31T21:09:06.040Z,99.90
2018-08-31T21:11:35.548Z,99.90
2018-08-31T21:14:05.015Z,99.90
2018-08-31T21:16:34.516Z,99.90
2018-08-31T21:19:04.072Z,99.90
2018-08-31T21:21:33.448Z,99.90
2018-08-31T21:24:03.054Z,99.90
2018-08-31T21:26:32.415Z,99.90
2018-08-31T21:29:01.758Z,99.90
2018-08-31T21:31:31.237Z,99.90
2018-08-31T21:34:00.637Z,99.90
2018-08-31T21:36:30.340Z,99.90
2018-08-31T21:38:59.675Z,99.90
2018-08-31T21:41:29.069Z,99.90
2018-08-31T21:43:58.533Z,99.90
2018-08-31T21:46:28.024Z,99.90
2018-08-31T21:48:57.227Z,99.90
2018-08-31T21:51:26.571Z,99.90
2018-08-31T21:53:55.903Z,99.90
2018-08-31T21:56:25.200Z,99.90
2018-08-31T21:58:54.640Z,99.90
2018-08-31T22:01:28.977Z,99.90
2018-08-31T22:03:58.324Z,99.90
2018-08-31T22:06:27.747Z,99.90
2018-08-31T22:08:57.437Z,99.90
2018-08-31T22:11:26.557Z,99.90
2018-08-31T22:13:56.064Z,99.90
2018-08-31T22:16:25.372Z,99.90
2018-08-31T22:18:54.672Z,99.90
2018-08-31T22:21:23.861Z,99.90
2018-08-31T22:23:53.105Z,99.90
2018-08-31T22:26:22.368Z,99.90
2018-08-31T22:28:51.572Z,99.90
2018-08-31T22:31:20.984Z,99.90
2018-08-31T22:33:50.133Z,99.90
2018-08-31T22:36:19.342Z,99.90
2018-08-31T22:38:48.515Z,99.90
2018-08-31T22:41:17.553Z,99.90
2018-08-31T22:43:50.023Z,99.90
2018-08-31T22:46:20.745Z,99.90
2018-08-31T22:48:50.443Z,99.90
2018-08-31T22:51:20.188Z,99.90
2018-08-31T22:53:49.549Z,99.90
2018-08-31T22:56:18.969Z,99.90
2018-08-31T22:58:48.039Z,99.90
2018-08-31T23:01:17.281Z,99.90
2018-08-31T23:03:46.448Z,99.90
2018-08-31T23:06:15.812Z,99.90
2018-08-31T23:08:44.879Z,99.90
2018-08-31T23:11:14.123Z,99.90
2018-08-31T23:13:44.321Z,99.90
2018-08-31T23:16:13.872Z,99.90
2018-08-31T23:18:42.945Z,99.90
2018-08-31T23:21:12.093Z,99.90
2018-08-31T23:23:47.772Z,99.90
2018-08-31T23:26:17.370Z,99.90
2018-08-31T23:28:46.541Z,99.90
2018-08-31T23:31:15.796Z,99.90
2018-08-31T23:33:44.956Z,99.90
2018-08-31T23:36:14.112Z,99.90
2018-08-31T23:38:43.394Z,99.90
2018-08-31T23:41:12.523Z,99.90
2018-08-31T23:43:41.715Z,99.90
2018-08-31T23:46:11.149Z,99.90
2018-08-31T23:48:40.365Z,99.90
2018-08-31T23:51:09.780Z,99.90
2018-08-31T23:53:38.981Z,99.90
2018-08-31T23:56:08.277Z,99.90
2018-08-31T23:58:37.612Z,99.90
